createdAt,value
2017-07-23T00:02:01.839Z,95.20
2017-07-23T00:04:30.014Z,95.20
2017-07-23T00:06:58.190Z,95.30
2017-07-23T00:09:26.374Z,95.10
2017-07-23T00:11:54.534Z,94.90
2017-07-23T00:14:22.705Z,94.70
2017-07-23T00:16:50.878Z,94.60
2017-07-23T00:19:19.041Z,94.80
2017-07-23T00:21:47.201Z,94.60
2017-07-23T00:24:16.160Z,94.50
2017-07-23T00:26:44.336Z,94.50
2017-07-23T00:29:12.507Z,94.70
2017-07-23T00:31:40.679Z,94.70
2017-07-23T00:34:08.858Z,94.80
2017-07-23T00:36:37.014Z,94.90
2017-07-23T00:39:05.283Z,94.90
2017-07-23T00:41:33.434Z,95.00
2017-07-23T00:44:01.613Z,95.10
2017-07-23T00:46:29.805Z,95.30
2017-07-23T00:48:57.985Z,95.60
2017-07-23T00:51:26.160Z,95.40
2017-07-23T00:53:54.360Z,95.40
2017-07-23T00:56:22.522Z,95.20
2017-07-23T00:58:50.696Z,95.10
2017-07-23T01:01:18.915Z,95.10
2017-07-23T01:03:47.856Z,95.40
2017-07-23T01:06:16.012Z,95.30
2017-07-23T01:08:44.192Z,95.10
2017-07-23T01:11:12.351Z,95.10
2017-07-23T01:13:40.524Z,94.90
2017-07-23T01:16:08.698Z,94.90
2017-07-23T01:18:36.877Z,94.80
2017-07-23T01:21:05.052Z,95.00
2017-07-23T01:23:33.235Z,95.20
2017-07-23T01:26:01.395Z,95.10
2017-07-23T01:28:29.570Z,95.00
2017-07-23T01:30:57.768Z,94.90
2017-07-23T01:33:25.914Z,95.00
2017-07-23T01:35:54.079Z,95.00
2017-07-23T01:38:22.261Z,95.20
2017-07-23T01:40:50.443Z,95.20
2017-07-23T01:43:18.598Z,95.00
2017-07-23T01:45:46.787Z,94.90
2017-07-23T01:48:14.951Z,94.80
2017-07-23T01:50:43.132Z,94.90
2017-07-23T01:53:11.309Z,94.90
2017-07-23T01:55:39.469Z,94.90
2017-07-23T01:58:08.403Z,94.90
2017-07-23T02:00:36.596Z,94.90
2017-07-23T02:03:04.755Z,94.90
2017-07-23T02:05:32.913Z,94.90
2017-07-23T02:08:01.117Z,94.80
2017-07-23T02:10:29.277Z,95.00
2017-07-23T02:12:57.429Z,95.10
2017-07-23T02:15:25.607Z,95.40
2017-07-23T02:17:53.777Z,95.30
2017-07-23T02:20:21.952Z,95.40
2017-07-23T02:22:50.150Z,95.40
2017-07-23T02:25:18.298Z,95.90
2017-07-23T02:27:46.450Z,95.70
2017-07-23T02:30:15.429Z,95.50
2017-07-23T02:32:43.578Z,95.40
2017-07-23T02:35:11.760Z,95.40
2017-07-23T02:37:39.943Z,96.00
2017-07-23T02:40:08.116Z,96.00
2017-07-23T02:42:36.265Z,95.90
2017-07-23T02:45:04.459Z,96.10
2017-07-23T02:47:32.636Z,96.40
2017-07-23T02:50:00.819Z,96.40
2017-07-23T02:52:29.025Z,96.30
2017-07-23T02:54:57.200Z,96.10
2017-07-23T02:57:25.373Z,96.00
2017-07-23T02:59:54.342Z,95.90
2017-07-23T03:02:22.490Z,95.90
2017-07-23T03:04:50.657Z,95.60
2017-07-23T03:07:18.854Z,95.90
2017-07-23T03:09:47.014Z,95.80
2017-07-23T03:12:15.167Z,95.90
2017-07-23T03:14:43.373Z,96.00
2017-07-23T03:17:11.552Z,96.20
2017-07-23T03:19:39.706Z,96.30
2017-07-23T03:22:07.886Z,96.50
2017-07-23T03:24:36.038Z,96.40
2017-07-23T03:27:04.209Z,96.40
2017-07-23T03:29:32.408Z,96.40
2017-07-23T03:32:00.585Z,96.50
2017-07-23T03:34:28.766Z,96.50
2017-07-23T03:36:56.965Z,96.60
2017-07-23T03:39:25.906Z,96.80
2017-07-23T03:41:54.078Z,96.40
2017-07-23T03:44:22.704Z,96.50
2017-07-23T03:46:50.858Z,96.50
2017-07-23T03:49:19.029Z,96.60
2017-07-23T03:51:47.257Z,96.60
2017-07-23T03:54:16.197Z,96.30
2017-07-23T03:56:44.372Z,96.30
2017-07-23T03:59:12.568Z,96.40
2017-07-23T04:01:40.717Z,96.50
2017-07-23T04:04:08.879Z,96.50
2017-07-23T04:06:37.080Z,96.70
2017-07-23T04:09:05.238Z,96.80
2017-07-23T04:11:33.412Z,96.60
2017-07-23T04:14:01.613Z,96.60
2017-07-23T04:16:29.790Z,96.60
2017-07-23T04:18:58.183Z,96.70
2017-07-23T04:21:26.397Z,96.90
2017-07-23T04:23:54.573Z,96.70
2017-07-23T04:26:22.744Z,96.60
2017-07-23T04:28:50.950Z,96.80
2017-07-23T04:31:19.111Z,96.70
2017-07-23T04:33:47.278Z,96.70
2017-07-23T04:36:15.465Z,96.90
2017-07-23T04:38:43.622Z,96.80
2017-07-23T04:41:11.774Z,96.80
2017-07-23T04:43:40.718Z,97.00
2017-07-23T04:46:08.890Z,97.00
2017-07-23T04:48:37.069Z,97.30
2017-07-23T04:51:05.288Z,97.10
2017-07-23T04:53:34.226Z,97.00
2017-07-23T04:56:02.400Z,97.00
2017-07-23T04:58:30.605Z,97.40
2017-07-23T05:00:58.794Z,97.50
2017-07-23T05:03:26.954Z,97.20
2017-07-23T05:05:55.148Z,97.50
2017-07-23T05:08:24.070Z,97.80
2017-07-23T05:10:52.241Z,97.80
2017-07-23T05:13:20.442Z,98.30
2017-07-23T05:15:48.610Z,98.70
2017-07-23T05:18:16.762Z,98.70
2017-07-23T05:20:44.950Z,99.00
2017-07-23T05:23:13.128Z,99.20
2017-07-23T05:25:41.286Z,99.20
2017-07-23T05:28:09.474Z,99.40
2017-07-23T05:30:37.630Z,99.30
2017-07-23T05:33:05.800Z,99.30
2017-07-23T05:35:34.765Z,99.70
2017-07-23T05:38:02.944Z,99.60
2017-07-23T05:40:31.110Z,99.60
2017-07-23T05:42:59.286Z,99.70
2017-07-23T05:45:27.440Z,99.40
2017-07-23T05:47:55.610Z,99.20
2017-07-23T05:50:23.789Z,99.10
2017-07-23T05:52:51.960Z,99.20
2017-07-23T05:55:20.133Z,99.30
2017-07-23T05:57:48.335Z,99.20
2017-07-23T06:00:16.488Z,99.10
2017-07-23T06:02:44.661Z,99.20
2017-07-23T06:05:12.855Z,99.00
2017-07-23T06:07:42.641Z,98.50
2017-07-23T06:10:11.594Z,98.50
2017-07-23T06:12:39.835Z,98.60
2017-07-23T06:15:07.991Z,98.70
2017-07-23T06:17:36.154Z,98.80
2017-07-23T06:20:04.357Z,98.40
2017-07-23T06:22:32.532Z,98.50
2017-07-23T06:25:00.690Z,98.90
2017-07-23T06:27:28.903Z,98.80
2017-07-23T06:29:57.849Z,98.60
2017-07-23T06:32:26.010Z,98.60
2017-07-23T06:34:54.212Z,98.50
2017-07-23T06:37:22.371Z,98.20
2017-07-23T06:39:50.556Z,98.50
2017-07-23T06:42:18.756Z,98.10
2017-07-23T06:44:46.905Z,98.00
2017-07-23T06:47:15.088Z,97.30
2017-07-23T06:49:43.285Z,97.30
2017-07-23T06:52:11.456Z,97.20
2017-07-23T06:54:39.629Z,96.80
2017-07-23T06:57:07.825Z,96.40
2017-07-23T06:59:36.785Z,96.90
2017-07-23T07:02:04.953Z,96.90
2017-07-23T07:04:33.373Z,96.60
2017-07-23T07:07:02.316Z,96.00
2017-07-23T07:09:30.493Z,96.00
2017-07-23T07:11:58.692Z,95.80
2017-07-23T07:14:26.869Z,96.10
2017-07-23T07:16:55.036Z,95.20
2017-07-23T07:19:23.234Z,95.00
2017-07-23T07:21:52.175Z,93.50
2017-07-23T07:24:20.339Z,93.50
2017-07-23T07:26:48.589Z,93.20
2017-07-23T07:29:17.529Z,92.80
2017-07-23T07:31:45.695Z,92.80
2017-07-23T07:34:13.901Z,93.00
2017-07-23T07:36:42.064Z,93.50
2017-07-23T07:39:10.226Z,92.80
2017-07-23T07:41:38.420Z,93.10
2017-07-23T07:44:06.573Z,93.10
2017-07-23T07:46:34.748Z,91.90
2017-07-23T07:49:02.929Z,90.90
2017-07-23T07:51:31.082Z,89.80
2017-07-23T07:53:59.262Z,89.50
2017-07-23T07:56:27.450Z,89.10
2017-07-23T07:58:55.614Z,89.70
2017-07-23T08:01:23.774Z,90.30
2017-07-23T08:03:51.972Z,90.90
2017-07-23T08:06:20.141Z,90.10
2017-07-23T08:08:48.319Z,90.80
2017-07-23T08:11:16.511Z,90.30
2017-07-23T08:13:44.698Z,90.80
2017-07-23T08:16:12.869Z,87.70
2017-07-23T08:18:41.049Z,88.70
2017-07-23T08:21:09.203Z,90.50
2017-07-23T08:23:37.361Z,90.90
2017-07-23T08:26:05.905Z,90.80
2017-07-23T08:28:34.838Z,90.40
2017-07-23T08:31:03.015Z,90.30
2017-07-23T08:33:31.249Z,90.60
2017-07-23T08:36:00.165Z,90.30
2017-07-23T08:38:28.326Z,90.30
2017-07-23T08:40:56.517Z,90.10
2017-07-23T08:43:24.665Z,90.20
2017-07-23T08:45:53.597Z,89.90
2017-07-23T08:48:21.766Z,89.90
2017-07-23T08:50:49.932Z,89.20
2017-07-23T08:53:18.082Z,88.90
2017-07-23T08:55:46.281Z,86.80
2017-07-23T08:58:14.430Z,87.20
2017-07-23T09:00:42.600Z,89.30
2017-07-23T09:03:11.565Z,86.00
2017-07-23T09:05:39.710Z,86.00
2017-07-23T09:08:07.858Z,82.80
2017-07-23T09:10:36.039Z,76.40
2017-07-23T09:13:04.189Z,73.60
2017-07-23T09:15:33.101Z,70.20
2017-07-23T09:18:01.319Z,70.20
2017-07-23T09:20:29.482Z,67.00
2017-07-23T09:22:57.648Z,65.70
2017-07-23T09:25:25.836Z,65.10
2017-07-23T09:27:54.005Z,66.70
2017-07-23T09:30:22.171Z,66.70
2017-07-23T09:32:50.343Z,67.10
2017-07-23T09:35:18.492Z,68.60
2017-07-23T09:37:46.649Z,69.70
2017-07-23T09:40:14.823Z,72.20
2017-07-23T09:42:43.738Z,73.90
2017-07-23T09:45:11.890Z,73.70
2017-07-23T09:47:41.789Z,75.30
2017-07-23T09:50:09.956Z,75.10
2017-07-23T09:52:38.106Z,75.00
2017-07-23T09:55:06.297Z,76.40
2017-07-23T09:57:34.460Z,79.30
2017-07-23T10:00:02.622Z,81.60
2017-07-23T10:02:30.813Z,84.30
2017-07-23T10:04:58.949Z,83.70
2017-07-23T10:07:27.108Z,84.50
2017-07-23T10:09:56.046Z,82.80
2017-07-23T10:12:24.212Z,82.70
2017-07-23T10:14:52.377Z,82.90
2017-07-23T10:17:20.553Z,84.70
2017-07-23T10:19:48.715Z,87.00
2017-07-23T10:22:16.901Z,86.10
2017-07-23T10:24:45.094Z,85.00
2017-07-23T10:27:13.262Z,85.10
2017-07-23T10:29:41.410Z,80.60
2017-07-23T10:32:09.583Z,80.60
2017-07-23T10:34:37.766Z,77.40
2017-07-23T10:37:05.935Z,72.40
2017-07-23T10:39:34.140Z,70.70
2017-07-23T10:42:02.306Z,71.00
2017-07-23T10:44:30.468Z,69.90
2017-07-23T10:46:58.643Z,67.00
2017-07-23T10:49:26.782Z,64.40
2017-07-23T10:51:55.699Z,61.30
2017-07-23T10:54:23.872Z,61.20
2017-07-23T10:56:52.040Z,61.00
2017-07-23T10:59:20.229Z,61.70
2017-07-23T11:01:48.434Z,63.80
2017-07-23T11:04:16.616Z,65.30
2017-07-23T11:06:44.758Z,65.60
2017-07-23T11:09:12.953Z,67.30
2017-07-23T11:11:41.122Z,67.70
2017-07-23T11:14:09.277Z,68.00
2017-07-23T11:16:37.454Z,67.90
2017-07-23T11:19:05.599Z,68.00
2017-07-23T11:21:34.534Z,68.60
2017-07-23T11:24:02.709Z,68.60
2017-07-23T11:26:30.883Z,69.00
2017-07-23T11:28:59.049Z,69.60
2017-07-23T11:31:27.232Z,69.80
2017-07-23T11:33:55.381Z,70.80
2017-07-23T11:36:23.544Z,72.40
2017-07-23T11:38:51.734Z,71.60
2017-07-23T11:41:19.905Z,71.30
2017-07-23T11:43:48.077Z,70.80
2017-07-23T11:46:16.281Z,70.60
2017-07-23T11:48:44.450Z,68.90
2017-07-23T11:51:12.606Z,67.20
2017-07-23T11:53:40.809Z,65.60
2017-07-23T11:56:08.976Z,66.70
2017-07-23T11:58:37.149Z,64.60
2017-07-23T12:01:05.321Z,63.60
2017-07-23T12:03:33.503Z,62.20
2017-07-23T12:06:01.659Z,62.90
2017-07-23T12:08:29.853Z,64.20
2017-07-23T12:10:57.999Z,61.90
2017-07-23T12:13:26.163Z,62.50
2017-07-23T12:15:54.362Z,63.10
2017-07-23T12:18:22.535Z,63.40
2017-07-23T12:20:50.722Z,64.10
2017-07-23T12:23:18.901Z,63.50
2017-07-23T12:25:47.069Z,62.50
2017-07-23T12:28:15.217Z,64.00
2017-07-23T12:30:43.403Z,64.60
2017-07-23T12:33:11.550Z,63.10
2017-07-23T12:35:40.466Z,62.00
2017-07-23T12:38:08.654Z,61.90
2017-07-23T12:40:36.816Z,58.00
2017-07-23T12:43:04.968Z,56.70
2017-07-23T12:45:33.172Z,55.30
2017-07-23T12:48:01.317Z,55.60
2017-07-23T12:50:29.470Z,52.20
2017-07-23T12:52:58.435Z,53.20
2017-07-23T12:55:26.596Z,53.20
2017-07-23T12:57:54.769Z,51.60
2017-07-23T13:00:22.950Z,53.00
2017-07-23T13:02:51.094Z,51.90
2017-07-23T13:05:19.242Z,53.10
2017-07-23T13:07:48.190Z,52.50
2017-07-23T13:10:16.361Z,53.00
2017-07-23T13:12:44.534Z,53.00
2017-07-23T13:15:12.710Z,52.50
2017-07-23T13:17:40.873Z,53.50
2017-07-23T13:20:09.036Z,51.60
2017-07-23T13:22:37.230Z,53.70
2017-07-23T13:25:05.406Z,53.10
2017-07-23T13:27:33.555Z,53.90
2017-07-23T13:30:01.740Z,55.60
2017-07-23T13:32:29.908Z,56.10
2017-07-23T13:34:58.054Z,55.10
2017-07-23T13:37:27.009Z,52.90
2017-07-23T13:39:55.157Z,52.90
2017-07-23T13:42:23.302Z,54.00
2017-07-23T13:44:52.242Z,54.00
2017-07-23T13:47:20.413Z,54.00
2017-07-23T13:49:48.577Z,53.00
2017-07-23T13:52:16.777Z,53.20
2017-07-23T13:54:44.930Z,52.30
2017-07-23T13:57:13.087Z,53.20
2017-07-23T13:59:41.285Z,53.20
2017-07-23T14:02:09.436Z,54.00
2017-07-23T14:04:37.600Z,54.80
2017-07-23T14:07:05.792Z,55.00
2017-07-23T14:09:33.938Z,55.40
2017-07-23T14:12:02.864Z,54.80
2017-07-23T14:14:31.041Z,54.80
2017-07-23T14:16:59.217Z,54.40
2017-07-23T14:19:27.397Z,52.90
2017-07-23T14:21:55.583Z,52.70
2017-07-23T14:24:23.753Z,51.60
2017-07-23T14:26:51.919Z,51.70
2017-07-23T14:29:20.109Z,51.60
2017-07-23T14:31:48.266Z,50.50
2017-07-23T14:34:16.437Z,48.50
2017-07-23T14:36:44.633Z,48.50
2017-07-23T14:39:12.782Z,49.00
2017-07-23T14:41:40.933Z,49.20
2017-07-23T14:44:09.114Z,49.10
2017-07-23T14:46:37.287Z,48.60
2017-07-23T14:49:05.460Z,46.80
2017-07-23T14:51:33.657Z,48.30
2017-07-23T14:54:01.825Z,50.20
2017-07-23T14:56:29.977Z,50.30
2017-07-23T14:58:58.189Z,50.90
2017-07-23T15:01:26.341Z,50.50
2017-07-23T15:03:54.486Z,49.00
2017-07-23T15:06:23.458Z,49.10
2017-07-23T15:08:51.606Z,49.10
2017-07-23T15:11:19.778Z,48.90
2017-07-23T15:13:48.003Z,49.00
2017-07-23T15:16:16.941Z,48.20
2017-07-23T15:18:45.108Z,48.20
2017-07-23T15:21:13.281Z,48.80
2017-07-23T15:23:41.442Z,48.70
2017-07-23T15:26:09.610Z,48.80
2017-07-23T15:28:37.812Z,49.40
2017-07-23T15:31:05.977Z,49.60
2017-07-23T15:33:34.149Z,49.60
2017-07-23T15:36:02.323Z,48.80
2017-07-23T15:38:30.484Z,49.10
2017-07-23T15:40:58.640Z,48.70
2017-07-23T15:43:28.021Z,49.30
2017-07-23T15:45:56.196Z,48.70
2017-07-23T15:48:25.399Z,49.70
2017-07-23T15:50:53.610Z,50.00
2017-07-23T15:53:21.783Z,50.40
2017-07-23T15:55:50.715Z,49.00
2017-07-23T15:58:18.893Z,49.00
2017-07-23T16:00:47.038Z,47.90
2017-07-23T16:03:15.216Z,48.30
2017-07-23T16:05:43.394Z,48.50
2017-07-23T16:08:11.561Z,48.60
2017-07-23T16:10:39.733Z,48.80
2017-07-23T16:13:07.909Z,48.70
2017-07-23T16:15:36.069Z,48.60
2017-07-23T16:18:04.980Z,49.50
2017-07-23T16:20:33.150Z,48.80
2017-07-23T16:23:01.324Z,49.30
2017-07-23T16:25:29.492Z,49.60
2017-07-23T16:27:57.686Z,49.70
2017-07-23T16:30:25.836Z,49.80
2017-07-23T16:32:54.004Z,49.60
2017-07-23T16:35:22.964Z,50.80
2017-07-23T16:37:51.136Z,50.80
2017-07-23T16:40:19.298Z,50.80
2017-07-23T16:42:47.478Z,50.80
2017-07-23T16:45:15.629Z,50.50
2017-07-23T16:47:43.798Z,50.30
2017-07-23T16:50:11.971Z,50.10
2017-07-23T16:52:40.122Z,50.50
2017-07-23T16:55:08.294Z,51.20
2017-07-23T16:57:37.253Z,51.10
2017-07-23T17:00:05.417Z,51.10
2017-07-23T17:02:33.593Z,51.10
2017-07-23T17:05:01.774Z,51.20
2017-07-23T17:07:29.947Z,52.10
2017-07-23T17:09:58.124Z,52.30
2017-07-23T17:12:26.298Z,52.00
2017-07-23T17:14:54.447Z,51.30
2017-07-23T17:17:22.624Z,51.30
2017-07-23T17:19:50.821Z,51.50
2017-07-23T17:22:18.977Z,51.50
2017-07-23T17:24:47.967Z,51.40
2017-07-23T17:27:16.164Z,51.40
2017-07-23T17:29:44.328Z,51.60
2017-07-23T17:32:12.478Z,51.50
2017-07-23T17:34:40.661Z,51.60
2017-07-23T17:37:08.838Z,52.00
2017-07-23T17:39:36.990Z,51.90
2017-07-23T17:42:05.205Z,52.40
2017-07-23T17:44:33.368Z,52.70
2017-07-23T17:47:01.546Z,53.20
2017-07-23T17:49:29.736Z,52.50
2017-07-23T17:51:57.898Z,52.10
2017-07-23T17:54:26.064Z,52.60
2017-07-23T17:56:54.234Z,51.90
2017-07-23T17:59:22.410Z,52.10
2017-07-23T18:01:50.583Z,52.20
2017-07-23T18:04:18.762Z,52.40
2017-07-23T18:06:46.949Z,52.70
2017-07-23T18:09:15.112Z,52.90
2017-07-23T18:11:43.323Z,53.20
2017-07-23T18:14:11.476Z,53.20
2017-07-23T18:16:39.650Z,53.30
2017-07-23T18:19:07.848Z,53.20
2017-07-23T18:21:36.003Z,53.80
2017-07-23T18:24:04.172Z,54.50
2017-07-23T18:26:32.373Z,54.70
2017-07-23T18:29:00.517Z,54.80
2017-07-23T18:31:28.693Z,54.80
2017-07-23T18:33:56.897Z,55.00
2017-07-23T18:36:25.851Z,55.60
2017-07-23T18:38:54.044Z,54.90
2017-07-23T18:41:22.251Z,55.60
2017-07-23T18:43:51.305Z,55.70
2017-07-23T18:46:19.584Z,55.60
2017-07-23T18:48:47.953Z,53.50
2017-07-23T18:51:16.385Z,51.90
2017-07-23T18:53:44.776Z,52.80
2017-07-23T18:56:13.203Z,52.10
2017-07-23T18:58:41.630Z,51.60
2017-07-23T19:01:10.144Z,51.50
2017-07-23T19:03:38.644Z,51.60
2017-07-23T19:06:07.874Z,52.90
2017-07-23T19:08:36.338Z,52.80
2017-07-23T19:11:04.852Z,52.80
2017-07-23T19:13:33.303Z,53.90
2017-07-23T19:16:02.514Z,54.80
2017-07-23T19:18:31.026Z,54.80
2017-07-23T19:20:59.505Z,55.30
2017-07-23T19:23:27.950Z,55.90
2017-07-23T19:25:57.230Z,56.30
2017-07-23T19:28:26.469Z,56.50
2017-07-23T19:30:54.887Z,56.50
2017-07-23T19:33:23.394Z,56.90
2017-07-23T19:35:52.643Z,56.60
2017-07-23T19:38:21.146Z,56.60
2017-07-23T19:40:49.662Z,56.30
2017-07-23T19:43:18.909Z,56.90
2017-07-23T19:45:47.407Z,56.90
2017-07-23T19:48:15.938Z,56.70
2017-07-23T19:50:44.444Z,56.80
2017-07-23T19:53:12.929Z,57.00
2017-07-23T19:55:41.451Z,57.20
2017-07-23T19:58:09.856Z,57.20
2017-07-23T20:00:38.235Z,57.90
2017-07-23T20:03:06.741Z,57.80
2017-07-23T20:05:35.180Z,57.70
2017-07-23T20:08:03.589Z,57.70
2017-07-23T20:10:32.767Z,57.90
2017-07-23T20:13:01.200Z,57.80
2017-07-23T20:15:29.629Z,57.70
2017-07-23T20:17:57.995Z,58.10
2017-07-23T20:20:26.330Z,58.30
2017-07-23T20:22:54.618Z,58.80
2017-07-23T20:25:23.638Z,58.80
2017-07-23T20:27:51.818Z,58.80
2017-07-23T20:30:19.984Z,59.30
2017-07-23T20:32:48.162Z,59.80
2017-07-23T20:35:16.314Z,59.40
2017-07-23T20:37:44.488Z,59.20
2017-07-23T20:40:12.677Z,59.80
2017-07-23T20:42:40.826Z,60.00
2017-07-23T20:45:09.762Z,57.10
2017-07-23T20:47:37.965Z,57.10
2017-07-23T20:50:06.133Z,54.90
2017-07-23T20:52:34.291Z,55.00
2017-07-23T20:55:02.488Z,55.50
2017-07-23T20:57:30.640Z,53.20
2017-07-23T20:59:58.785Z,53.70
2017-07-23T21:02:26.958Z,53.10
2017-07-23T21:04:55.126Z,53.20
2017-07-23T21:07:24.058Z,52.50
2017-07-23T21:09:52.234Z,52.50
2017-07-23T21:12:20.409Z,53.40
2017-07-23T21:14:48.574Z,53.70
2017-07-23T21:17:16.776Z,53.80
2017-07-23T21:19:44.922Z,53.70
2017-07-23T21:22:13.070Z,53.90
2017-07-23T21:24:41.267Z,54.10
2017-07-23T21:27:09.415Z,54.10
2017-07-23T21:29:38.373Z,54.30
2017-07-23T21:32:06.549Z,54.30
2017-07-23T21:34:34.705Z,54.80
2017-07-23T21:37:02.873Z,54.60
2017-07-23T21:39:31.072Z,54.80
2017-07-23T21:41:59.245Z,55.10
2017-07-23T21:44:27.420Z,55.80
2017-07-23T21:46:55.620Z,56.10
2017-07-23T21:49:24.568Z,57.10
2017-07-23T21:51:52.737Z,57.00
2017-07-23T21:54:20.929Z,57.40
2017-07-23T21:56:49.072Z,57.70
2017-07-23T21:59:17.219Z,57.70
2017-07-23T22:01:46.177Z,58.10
2017-07-23T22:04:14.330Z,58.10
2017-07-23T22:06:42.487Z,58.20
2017-07-23T22:09:10.682Z,58.20
2017-07-23T22:11:38.858Z,58.50
2017-07-23T22:14:07.026Z,58.40
2017-07-23T22:16:35.206Z,58.70
2017-07-23T22:19:03.376Z,59.00
2017-07-23T22:21:31.550Z,59.30
2017-07-23T22:23:59.749Z,59.50
2017-07-23T22:26:27.912Z,59.90
2017-07-23T22:28:56.058Z,60.00
2017-07-23T22:31:24.241Z,60.30
2017-07-23T22:33:52.421Z,60.60
2017-07-23T22:36:20.565Z,61.10
2017-07-23T22:38:48.766Z,61.30
2017-07-23T22:41:16.931Z,61.40
2017-07-23T22:43:45.093Z,61.30
2017-07-23T22:46:13.285Z,61.90
2017-07-23T22:48:41.442Z,61.80
2017-07-23T22:51:09.590Z,63.20
2017-07-23T22:53:38.548Z,62.90
2017-07-23T22:56:06.713Z,62.90
2017-07-23T22:58:34.857Z,64.30
2017-07-23T23:01:03.049Z,63.60
2017-07-23T23:03:31.194Z,63.70
2017-07-23T23:05:59.367Z,64.90
2017-07-23T23:08:28.321Z,65.10
2017-07-23T23:10:56.471Z,64.90
2017-07-23T23:13:24.615Z,65.00
2017-07-23T23:15:52.924Z,65.20
2017-07-23T23:18:21.067Z,65.70
2017-07-23T23:20:49.210Z,65.90
2017-07-23T23:23:17.378Z,66.40
2017-07-23T23:25:45.529Z,66.90
2017-07-23T23:28:13.676Z,66.70
2017-07-23T23:30:41.874Z,66.80
2017-07-23T23:33:10.069Z,66.50
2017-07-23T23:35:38.217Z,66.00
2017-07-23T23:38:06.394Z,66.20
2017-07-23T23:40:35.250Z,67.10
2017-07-23T23:43:03.446Z,67.00
2017-07-23T23:45:31.644Z,67.30
2017-07-23T23:47:59.832Z,66.80
2017-07-23T23:50:27.982Z,66.50
2017-07-23T23:52:56.156Z,66.70
2017-07-23T23:55:24.328Z,67.20
2017-07-23T23:57:52.479Z,67.20
